createdAt,value
2022-08-05T00:00:29.219Z,98816.40
2022-08-05T00:03:27.186Z,98817.20
2022-08-05T00:06:33.424Z,98816.20
2022-08-05T00:09:33.574Z,98817.20
2022-08-05T00:12:31.035Z,98814.80
2022-08-05T00:15:57.615Z,98808.20
2022-08-05T00:18:45.998Z,98804.00
2022-08-05T00:21:46.808Z,98799.00
2022-08-05T00:24:44.306Z,98796.00
2022-08-05T00:27:42.901Z,98802.40
2022-08-05T00:30:41.062Z,98797.60
2022-08-05T00:34:54.078Z,98785.20
2022-08-05T00:37:11.793Z,98788.60
2022-08-05T00:40:11.476Z,98784.40
2022-08-05T00:43:08.946Z,98780.40
2022-08-05T00:46:12.845Z,98777.00
2022-08-05T00:49:14.094Z,98775.80
2022-08-05T00:52:12.289Z,98773.80
2022-08-05T00:55:09.787Z,98774.00
2022-08-05T00:58:08.902Z,98773.60
2022-08-05T01:01:09.646Z,98771.40
2022-08-05T01:04:13.865Z,98769.80
2022-08-05T01:07:13.704Z,98764.80
2022-08-05T01:10:11.435Z,98759.60
2022-08-05T01:13:13.237Z,98757.60
2022-08-05T01:16:21.096Z,98756.20
2022-08-05T01:19:56.230Z,98753.20
2022-08-05T01:22:41.398Z,98749.80
2022-08-05T01:25:40.577Z,98753.80
2022-08-05T01:28:39.671Z,98751.20
2022-08-05T01:31:42.766Z,98745.60
2022-08-05T01:34:43.126Z,98743.80
2022-08-05T01:37:44.372Z,98749.60
2022-08-05T01:40:42.272Z,98750.80
2022-08-05T01:43:39.748Z,98745.80
2022-08-05T01:46:43.184Z,98745.20
2022-08-05T01:50:01.567Z,98740.60
2022-08-05T01:53:00.358Z,98737.00
2022-08-05T01:55:57.872Z,98738.20
2022-08-05T01:58:55.564Z,98735.40
2022-08-05T02:01:54.844Z,98737.00
2022-08-05T02:04:53.075Z,98734.40
2022-08-05T02:08:00.043Z,98733.20
2022-08-05T02:10:59.359Z,98733.00
2022-08-05T02:13:56.855Z,98730.40
2022-08-05T02:16:54.764Z,98733.40
2022-08-05T02:19:52.255Z,98723.20
2022-08-05T02:22:49.777Z,98723.20
2022-08-05T02:25:49.364Z,98715.40
2022-08-05T02:28:48.123Z,98716.80
2022-08-05T02:31:45.984Z,98724.20
2022-08-05T02:34:43.518Z,98722.80
2022-08-05T02:37:53.968Z,98726.00
2022-08-05T02:40:51.772Z,98721.00
2022-08-05T02:44:02.379Z,98720.40
2022-08-05T02:47:06.734Z,98718.80
2022-08-05T02:50:04.240Z,98713.60
2022-08-05T02:53:04.835Z,98714.20
2022-08-05T02:56:09.403Z,98712.20
2022-08-05T02:59:06.904Z,98713.00
2022-08-05T03:02:04.457Z,98711.20
2022-08-05T03:05:02.028Z,98709.40
2022-08-05T03:08:08.660Z,98710.20
2022-08-05T03:11:56.042Z,98706.40
2022-08-05T03:14:24.271Z,98703.20
2022-08-05T03:17:23.990Z,98704.60
2022-08-05T03:20:22.605Z,98698.60
2022-08-05T03:23:24.013Z,98697.00
2022-08-05T03:26:31.995Z,98700.20
2022-08-05T03:29:45.283Z,98693.20
2022-08-05T03:32:47.653Z,98691.80
2022-08-05T03:35:45.144Z,98693.20
2022-08-05T03:38:43.229Z,98692.60
2022-08-05T03:41:52.673Z,98696.20
2022-08-05T03:44:53.795Z,98701.00
2022-08-05T03:47:51.307Z,98699.20
2022-08-05T03:50:48.818Z,98700.40
2022-08-05T03:55:06.982Z,98705.40
2022-08-05T03:57:16.719Z,98703.20
2022-08-05T04:00:16.294Z,98703.60
2022-08-05T04:03:14.989Z,98711.20
2022-08-05T04:06:26.523Z,98709.40
2022-08-05T04:09:26.337Z,98708.00
2022-08-05T04:12:24.790Z,98703.60
2022-08-05T04:15:24.494Z,98702.00
2022-08-05T04:18:22.609Z,98701.00
2022-08-05T04:22:09.746Z,98700.80
2022-08-05T04:24:44.189Z,98702.20
2022-08-05T04:27:43.856Z,98698.60
2022-08-05T04:30:55.108Z,98697.80
2022-08-05T04:34:18.713Z,98696.80
2022-08-05T04:37:10.205Z,98692.60
2022-08-05T04:40:08.469Z,98695.80
2022-08-05T04:43:05.943Z,98693.20
2022-08-05T04:46:08.582Z,98692.80
2022-08-05T04:49:12.219Z,98700.40
2022-08-05T04:52:12.536Z,98699.20
2022-08-05T04:55:14.442Z,98698.00
2022-08-05T04:58:12.818Z,98695.40
2022-08-05T05:01:10.337Z,98693.00
2022-08-05T05:04:09.462Z,98688.40
2022-08-05T05:07:09.334Z,98689.00
2022-08-05T05:10:07.255Z,98686.80
2022-08-05T05:13:04.759Z,98687.60
2022-08-05T05:16:06.135Z,98688.20
2022-08-05T05:19:19.545Z,98683.80
2022-08-05T05:22:24.618Z,98682.60
2022-08-05T05:25:40.577Z,98683.80
2022-08-05T05:28:38.978Z,98687.00
2022-08-05T05:34:36.777Z,98686.40
2022-08-05T05:37:37.429Z,98689.00
2022-08-05T05:40:53.130Z,98696.00
2022-08-05T05:43:58.372Z,98692.40
2022-08-05T05:46:58.328Z,98687.80
2022-08-05T05:50:01.520Z,98688.60
2022-08-05T05:52:59.422Z,98686.80
2022-08-05T05:56:00.744Z,98690.20
2022-08-05T05:59:03.164Z,98689.60
2022-08-05T06:02:01.398Z,98690.40
2022-08-05T06:04:58.919Z,98686.80
2022-08-05T06:08:01.646Z,98693.20
2022-08-05T06:10:59.646Z,98697.60
2022-08-05T06:13:58.043Z,98694.80
2022-08-05T06:16:58.166Z,98692.80
2022-08-05T06:19:59.395Z,98691.60
2022-08-05T06:22:57.360Z,98692.80
2022-08-05T06:26:12.890Z,98697.00
2022-08-05T06:29:25.145Z,98697.60
2022-08-05T06:32:30.716Z,98701.60
2022-08-05T06:36:09.322Z,98703.80
2022-08-05T06:38:47.150Z,98709.00
2022-08-05T06:41:44.848Z,98711.40
2022-08-05T06:44:42.346Z,98714.80
2022-08-05T06:48:44.270Z,98712.80
2022-08-05T06:51:09.325Z,98711.60
2022-08-05T06:54:07.975Z,98709.00
2022-08-05T06:57:57.808Z,98711.00
2022-08-05T07:00:27.073Z,98708.40
2022-08-05T07:03:28.011Z,98711.20
2022-08-05T07:06:30.566Z,98707.00
2022-08-05T07:09:32.363Z,98706.00
2022-08-05T07:12:52.700Z,98701.20
2022-08-05T07:16:07.966Z,98709.80
2022-08-05T07:19:09.714Z,98715.20
2022-08-05T07:22:07.199Z,98710.20
2022-08-05T07:25:23.418Z,98705.40
2022-08-05T07:28:23.111Z,98705.80
2022-08-05T07:31:20.616Z,98706.60
2022-08-05T07:34:42.051Z,98708.80
2022-08-05T07:37:39.895Z,98709.80
2022-08-05T07:40:45.070Z,98712.80
2022-08-05T07:43:43.104Z,98707.60
2022-08-05T07:46:40.582Z,98714.40
2022-08-05T07:49:43.364Z,98709.80
2022-08-05T07:52:51.639Z,98713.40
2022-08-05T07:56:06.475Z,98713.00
2022-08-05T07:59:08.411Z,98712.80
2022-08-05T08:02:07.407Z,98713.80
2022-08-05T08:05:13.891Z,98716.40
2022-08-05T08:08:12.335Z,98720.00
2022-08-05T08:11:10.105Z,98722.60
2022-08-05T08:14:18.447Z,98718.00
2022-08-05T08:17:16.683Z,98720.80
2022-08-05T08:20:43.729Z,98722.20
2022-08-05T08:24:03.403Z,98720.60
2022-08-05T08:26:50.998Z,98716.40
2022-08-05T08:30:04.209Z,98715.40
2022-08-05T08:33:08.246Z,98718.00
2022-08-05T08:36:38.474Z,98717.40
2022-08-05T08:39:23.597Z,98720.60
2022-08-05T08:42:34.431Z,98720.00
2022-08-05T08:45:38.646Z,98726.20
2022-08-05T08:49:03.340Z,98721.20
2022-08-05T08:52:04.052Z,98718.00
2022-08-05T08:55:04.558Z,98712.20
2022-08-05T08:58:12.829Z,98711.60
2022-08-05T09:01:16.455Z,98715.80
2022-08-05T09:04:14.866Z,98718.00
2022-08-05T09:07:19.700Z,98717.40
2022-08-05T09:10:27.856Z,98720.40
2022-08-05T09:13:31.808Z,98717.00
2022-08-05T09:16:38.998Z,98725.00
2022-08-05T09:20:01.441Z,98723.60
2022-08-05T09:22:54.518Z,98725.80
2022-08-05T09:26:06.540Z,98723.60
2022-08-05T09:29:06.687Z,98727.00
2022-08-05T09:32:45.803Z,98727.60
2022-08-05T09:35:27.028Z,98728.00
2022-08-05T09:38:27.441Z,98723.00
2022-08-05T09:41:27.081Z,98724.60
2022-08-05T09:44:30.723Z,98726.20
2022-08-05T09:47:48.041Z,98723.20
2022-08-05T09:50:45.745Z,98726.20
2022-08-05T09:53:53.965Z,98726.00
2022-08-05T09:56:52.789Z,98725.80
2022-08-05T09:59:50.266Z,98720.60
2022-08-05T10:02:49.791Z,98721.80
2022-08-05T10:05:47.359Z,98726.20
2022-08-05T10:08:50.349Z,98722.40
2022-08-05T10:11:52.030Z,98721.80
2022-08-05T10:14:49.632Z,98719.80
2022-08-05T10:17:54.627Z,98720.60
2022-08-05T10:20:55.489Z,98711.80
2022-08-05T10:23:59.947Z,98712.00
2022-08-05T10:27:01.228Z,98714.80
2022-08-05T10:30:06.952Z,98715.20
2022-08-05T10:33:16.478Z,98717.00
2022-08-05T10:36:15.624Z,98713.40
2022-08-05T10:39:15.345Z,98712.20
2022-08-05T10:42:33.467Z,98715.20
2022-08-05T10:45:40.025Z,98714.00
2022-08-05T10:48:52.591Z,98705.00
2022-08-05T10:52:00.557Z,98702.20
2022-08-05T10:55:00.077Z,98705.60
2022-08-05T10:57:57.617Z,98708.80
2022-08-05T11:01:02.696Z,98704.00
2022-08-05T11:04:00.860Z,98700.80
2022-08-05T11:06:58.403Z,98698.20
2022-08-05T11:10:04.049Z,98695.20
2022-08-05T11:13:08.900Z,98700.20
2022-08-05T11:16:06.414Z,98692.80
2022-08-05T11:20:10.251Z,98692.80
2022-08-05T11:22:21.674Z,98692.40
2022-08-05T11:26:05.896Z,98691.80
2022-08-05T11:28:36.633Z,98687.00
2022-08-05T11:31:54.202Z,98694.20
2022-08-05T11:34:54.130Z,98693.80
2022-08-05T11:38:28.680Z,98688.40
2022-08-05T11:41:34.636Z,98690.80
2022-08-05T11:44:40.576Z,98687.40
2022-08-05T11:47:49.831Z,98695.60
2022-08-05T11:50:47.837Z,98703.00
2022-08-05T11:53:46.426Z,98702.00
2022-08-05T11:56:50.446Z,98698.00
2022-08-05T11:59:50.681Z,98697.60
2022-08-05T12:02:48.469Z,98697.00
2022-08-05T12:05:45.995Z,98694.40
2022-08-05T12:08:50.020Z,98687.80
2022-08-05T12:11:48.910Z,98690.20
2022-08-05T12:14:48.249Z,98699.40
2022-08-05T12:18:10.183Z,98698.60
2022-08-05T12:21:04.407Z,98697.60
2022-08-05T12:24:04.771Z,98695.60
2022-08-05T12:27:09.973Z,98696.80
2022-08-05T12:30:20.987Z,98700.80
2022-08-05T12:33:27.272Z,98694.20
2022-08-05T12:36:25.688Z,98697.00
2022-08-05T12:39:23.626Z,98706.00
2022-08-05T12:42:25.868Z,98699.80
2022-08-05T12:45:23.382Z,98701.60
2022-08-05T12:48:41.252Z,98701.40
2022-08-05T12:52:13.788Z,98700.60
2022-08-05T12:54:57.994Z,98695.20
2022-08-05T12:58:38.591Z,98694.60
2022-08-05T13:02:02.596Z,98696.60
2022-08-05T13:04:31.877Z,98692.20
2022-08-05T13:07:59.287Z,98695.60
2022-08-05T13:10:50.496Z,98695.20
2022-08-05T13:14:04.607Z,98699.60
2022-08-05T13:17:04.992Z,98697.20
2022-08-05T13:20:02.735Z,98689.60
2022-08-05T13:23:00.246Z,98683.00
2022-08-05T13:26:01.308Z,98684.80
2022-08-05T13:28:59.536Z,98683.00
2022-08-05T13:32:04.609Z,98679.80
2022-08-05T13:35:02.713Z,98677.60
2022-08-05T13:38:05.079Z,98673.00
2022-08-05T13:41:03.930Z,98683.20
2022-08-05T13:44:02.066Z,98667.40
2022-08-05T13:47:05.019Z,98668.80
2022-08-05T13:50:11.206Z,98670.40
2022-08-05T13:53:15.785Z,98663.20
2022-08-05T13:56:19.024Z,98658.40
2022-08-05T13:59:20.170Z,98654.00
2022-08-05T14:02:20.065Z,98647.00
2022-08-05T14:05:24.772Z,98645.40
2022-08-05T14:08:28.051Z,98643.80
2022-08-05T14:11:31.271Z,98637.80
2022-08-05T14:14:33.653Z,98635.40
2022-08-05T14:17:31.551Z,98632.60
2022-08-05T14:20:29.737Z,98632.60
2022-08-05T14:23:28.824Z,98630.60
2022-08-05T14:26:38.625Z,98623.60
2022-08-05T14:29:38.611Z,98625.00
2022-08-05T14:32:37.193Z,98620.80
2022-08-05T14:35:50.361Z,98621.00
2022-08-05T14:38:49.196Z,98621.60
2022-08-05T14:42:08.683Z,98619.20
2022-08-05T14:45:04.162Z,98612.00
2022-08-05T14:48:04.956Z,98608.40
2022-08-05T14:51:03.821Z,98611.20
2022-08-05T14:54:26.843Z,98619.20
2022-08-05T14:57:18.834Z,98607.40
2022-08-05T15:00:17.305Z,98616.80
2022-08-05T15:03:17.507Z,98619.60
2022-08-05T15:06:15.996Z,98625.20
2022-08-05T15:09:13.551Z,98624.20
2022-08-05T15:12:16.732Z,98626.60
2022-08-05T15:15:15.405Z,98625.80
2022-08-05T15:18:13.362Z,98631.60
2022-08-05T15:21:13.952Z,98631.80
2022-08-05T15:24:11.613Z,98631.60
2022-08-05T15:27:09.698Z,98629.20
2022-08-05T15:30:07.587Z,98630.60
2022-08-05T15:33:07.407Z,98626.60
2022-08-05T15:36:05.317Z,98622.80
2022-08-05T15:40:41.719Z,98622.00
2022-08-05T15:42:53.965Z,98618.60
2022-08-05T15:45:38.997Z,98614.20
2022-08-05T15:48:36.875Z,98607.60
2022-08-05T15:52:14.019Z,98612.20
2022-08-05T15:54:55.352Z,98617.00
2022-08-05T15:57:54.111Z,98618.80
2022-08-05T16:01:11.861Z,98617.60
2022-08-05T16:04:11.971Z,98615.60
2022-08-05T16:07:10.571Z,98622.00
2022-08-05T16:10:11.537Z,98622.80
2022-08-05T16:13:09.231Z,98617.20
2022-08-05T16:16:06.710Z,98621.20
2022-08-05T16:19:04.650Z,98623.40
2022-08-05T16:22:03.407Z,98621.20
2022-08-05T16:25:08.029Z,98622.20
2022-08-05T16:28:09.659Z,98624.20
2022-08-05T16:31:08.014Z,98626.80
2022-08-05T16:34:08.161Z,98626.40
2022-08-05T16:38:00.411Z,98629.00
2022-08-05T16:40:28.526Z,98629.40
2022-08-05T16:43:26.544Z,98629.00
2022-08-05T16:46:25.012Z,98625.00
2022-08-05T16:49:23.788Z,98628.60
2022-08-05T16:52:21.288Z,98626.40
2022-08-05T16:55:19.772Z,98625.60
2022-08-05T16:58:19.853Z,98624.60
2022-08-05T17:01:18.915Z,98615.40
2022-08-05T17:04:16.637Z,98622.40
2022-08-05T17:07:16.429Z,98623.00
2022-08-05T17:10:33.899Z,98614.20
2022-08-05T17:13:37.218Z,98616.80
2022-08-05T17:16:35.988Z,98613.60
2022-08-05T17:19:34.639Z,98613.00
2022-08-05T17:22:32.113Z,98605.60
2022-08-05T17:25:39.139Z,98605.60
2022-08-05T17:28:38.734Z,98611.80
2022-08-05T17:31:41.350Z,98609.80
2022-08-05T17:34:54.109Z,98607.60
2022-08-05T17:38:00.435Z,98607.20
2022-08-05T17:41:02.314Z,98612.60
2022-08-05T17:43:59.802Z,98616.60
2022-08-05T17:46:57.280Z,98620.60
2022-08-05T17:50:04.061Z,98628.80
2022-08-05T17:53:02.243Z,98632.60
2022-08-05T17:55:59.974Z,98638.20
2022-08-05T17:59:00.332Z,98635.80
2022-08-05T18:01:57.827Z,98641.40
2022-08-05T18:04:55.379Z,98643.20
2022-08-05T18:07:52.913Z,98647.80
2022-08-05T18:10:50.654Z,98652.60
2022-08-05T18:13:48.171Z,98645.80
2022-08-05T18:16:51.503Z,98646.80
2022-08-05T18:19:51.409Z,98652.60
2022-08-05T18:22:54.877Z,98652.00
2022-08-05T18:25:57.563Z,98653.80
2022-08-05T18:28:56.535Z,98656.40
2022-08-05T18:31:55.742Z,98656.80
2022-08-05T18:34:53.270Z,98662.00
2022-08-05T18:37:50.753Z,98662.20
2022-08-05T18:41:56.227Z,98663.00
2022-08-05T18:44:10.984Z,98664.80
2022-08-05T18:47:10.419Z,98659.40
2022-08-05T18:50:44.829Z,98664.80
2022-08-05T18:53:45.846Z,98662.80
2022-08-05T18:56:51.283Z,98659.00
2022-08-05T19:00:01.887Z,98664.00
2022-08-05T19:03:03.361Z,98667.20
2022-08-05T19:06:13.575Z,98677.00
2022-08-05T19:09:18.019Z,98679.80
2022-08-05T19:12:17.065Z,98680.20
2022-08-05T19:15:57.819Z,98675.20
2022-08-05T19:18:34.587Z,98672.80
2022-08-05T19:21:34.625Z,98675.60
2022-08-05T19:24:34.059Z,98672.60
2022-08-05T19:27:33.076Z,98678.80
2022-08-05T19:30:30.934Z,98679.40
2022-08-05T19:33:35.748Z,98677.20
2022-08-05T19:36:34.528Z,98679.80
2022-08-05T19:39:32.377Z,98680.00
2022-08-05T19:43:04.927Z,98678.20
2022-08-05T19:46:01.414Z,98683.40
2022-08-05T19:49:03.336Z,98678.00
2022-08-05T19:52:13.209Z,98678.80
2022-08-05T19:56:15.053Z,98680.60
2022-08-05T19:58:38.452Z,98681.40
2022-08-05T20:01:52.201Z,98679.00
2022-08-05T20:04:50.365Z,98680.00
2022-08-05T20:07:49.267Z,98679.20
2022-08-05T20:10:49.367Z,98672.40
2022-08-05T20:13:58.843Z,98673.40
2022-08-05T20:17:06.993Z,98674.00
2022-08-05T20:20:09.446Z,98672.20
2022-08-05T20:23:08.854Z,98678.00
2022-08-05T20:26:16.146Z,98675.40
2022-08-05T20:29:27.577Z,98678.20
2022-08-05T20:32:25.925Z,98682.40
2022-08-05T20:35:23.962Z,98676.80
2022-08-05T20:38:26.948Z,98680.00
2022-08-05T20:41:27.145Z,98679.00
2022-08-05T20:44:29.434Z,98681.00
2022-08-05T20:47:31.803Z,98679.20
2022-08-05T20:50:30.190Z,98675.80
2022-08-05T20:53:36.430Z,98677.40
2022-08-05T20:56:41.893Z,98678.20
2022-08-05T20:59:46.094Z,98676.00
2022-08-05T21:03:01.168Z,98676.20
2022-08-05T21:05:59.119Z,98677.40
2022-08-05T21:08:56.604Z,98679.60
2022-08-05T21:12:06.798Z,98669.40
2022-08-05T21:15:08.694Z,98670.80
2022-08-05T21:18:06.915Z,98668.80
2022-08-05T21:21:04.710Z,98667.80
2022-08-05T21:24:04.534Z,98664.00
2022-08-05T21:27:02.301Z,98669.40
2022-08-05T21:30:01.750Z,98669.40
2022-08-05T21:33:00.026Z,98670.20
2022-08-05T21:35:59.410Z,98667.80
2022-08-05T21:38:56.985Z,98669.20
2022-08-05T21:42:02.150Z,98676.00
2022-08-05T21:45:00.093Z,98679.20
2022-08-05T21:47:58.224Z,98685.60
2022-08-05T21:50:55.725Z,98685.00
2022-08-05T21:53:59.624Z,98688.40
2022-08-05T22:00:19.622Z,98692.00
2022-08-05T22:03:48.179Z,98692.40
2022-08-05T22:06:39.620Z,98700.60
2022-08-05T22:09:46.207Z,98705.40
2022-08-05T22:12:45.054Z,98715.00
2022-08-05T22:16:01.397Z,98711.60
2022-08-05T22:19:02.338Z,98712.40
2022-08-05T22:21:59.851Z,98707.00
2022-08-05T22:25:21.373Z,98703.40
2022-08-05T22:28:25.443Z,98706.20
2022-08-05T22:31:23.084Z,98708.80
2022-08-05T22:34:28.275Z,98712.80
2022-08-05T22:37:26.486Z,98716.20
2022-08-05T22:40:50.096Z,98723.00
2022-08-05T22:43:52.705Z,98727.80
2022-08-05T22:46:50.195Z,98731.80
2022-08-05T22:50:20.521Z,98740.40
2022-08-05T22:53:09.937Z,98739.60
2022-08-05T22:56:09.878Z,98747.20
2022-08-05T22:59:43.896Z,98753.80
2022-08-05T23:02:29.583Z,98757.00
2022-08-05T23:05:27.726Z,98757.40
2022-08-05T23:08:25.296Z,98759.20
2022-08-05T23:11:25.380Z,98768.40
2022-08-05T23:14:32.356Z,98764.20
2022-08-05T23:17:34.587Z,98767.40
2022-08-05T23:20:37.393Z,98763.40
2022-08-05T23:23:35.280Z,98767.40
2022-08-05T23:26:33.419Z,98767.40
2022-08-05T23:29:34.541Z,98763.00
2022-08-05T23:32:32.299Z,98760.60
2022-08-05T23:35:34.324Z,98763.00
2022-08-05T23:38:32.367Z,98756.80
2022-08-05T23:41:29.940Z,98758.40
2022-08-05T23:44:32.481Z,98756.00
2022-08-05T23:47:33.708Z,98760.00
2022-08-05T23:50:31.356Z,98758.60
2022-08-05T23:53:46.208Z,98768.60
2022-08-05T23:56:44.629Z,98770.00
